Date,TemperatureHighF,TemperatureAvgF,TemperatureLowF,DewpointHighF,DewpointAvgF,DewpointLowF,HumidityHigh,HumidityAvg,HumidityLow,PressureMaxIn,PressureMinIn,WindSpeedMaxMPH,WindSpeedAvgMPH,GustSpeedMaxMPH,PrecipitationSumIn
2013-1-1,41.4,33.4,28.8,34.0,32.1,32.0,90,78,57,30.21,30.09,0,0,0,0.00
2013-1-2,42.1,32.4,25.5,32.0,32.0,32.0,85,70,50,30.09,29.94,0,0,0,0.00
2013-1-3,40.8,33.0,24.8,32.0,32.0,32.0,83,68,51,30.03,29.91,0,0,0,0.00
2013-1-4,52.9,44.2,37.6,46.0,38.8,32.0,87,80,69,30.09,29.94,0,0,3,0.00
2013-1-5,42.4,39.9,38.1,39.0,33.6,32.0,86,78,66,29.97,29.91,0,0,0,0.00
2013-1-6,48.7,44.1,38.7,43.0,39.4,34.0,90,83,74,30.00,29.88,0,0,4,0.00
2013-1-7,54.9,49.7,45.7,54.0,46.9,41.0,95,91,83,30.00,29.83,4,0,14,0.00
2013-1-8,56.7,52.0,49.5,50.0,47.6,45.0,95,86,72,30.00,29.71,5,1,12,0.00
2013-1-9,51.4,44.6,38.3,46.0,40.1,34.0,93,83,70,29.77,29.53,4,0,12,0.78
2013-1-10,47.1,39.6,35.1,45.0,37.7,34.0,97,92,80,29.88,29.77,0,0,3,0.00
2013-1-11,41.7,34.5,27.5,39.0,33.5,32.0,95,85,58,30.06,29.88,0,0,0,0.00
2013-1-12,37.0,30.3,25.5,34.0,32.0,32.0,88,85,80,30.18,30.06,0,0,0,0.00
2013-1-13,32.5,30.9,29.3,32.0,32.0,32.0,89,85,79,30.27,30.18,0,0,0,0.00
2013-1-14,37.0,32.7,28.8,32.0,32.0,32.0,85,76,64,30.33,30.27,0,0,0,0.00
2013-1-15,41.0,37.1,32.9,36.0,32.7,32.0,85,80,75,30.42,30.30,0,0,0,0.00
2013-1-16,38.1,35.9,34.2,34.0,32.4,32.0,89,87,83,30.42,30.27,0,0,0,0.00
2013-1-17,37.9,35.4,33.4,36.0,33.3,32.0,93,91,88,30.27,30.09,0,0,0,0.00
2013-1-18,39.0,35.0,33.1,37.0,33.1,32.0,94,91,88,30.09,30.03,0,0,0,0.00
2013-1-19,37.0,33.8,31.6,36.0,32.5,32.0,94,91,88,30.12,30.06,0,0,0,0.00
2013-1-20,34.7,32.5,31.1,34.0,32.0,32.0,93,91,90,30.12,30.00,0,0,0,0.00
2013-1-21,35.1,31.7,29.3,34.0,32.0,32.0,94,90,85,30.06,29.91,0,0,0,0.00
2013-1-22,35.2,32.0,28.8,34.0,32.0,32.0,93,90,87,30.30,29.71,0,0,0,0.00
2013-1-23,38.1,35.9,33.3,36.0,34.3,32.0,97,94,91,30.39,29.68,0,0,0,0.12
2013-1-24,43.7,39.7,35.2,45.0,39.9,36.0,97,97,97,29.97,29.88,0,0,4,0.20
2013-1-25,55.4,47.9,40.1,55.0,48.0,41.0,97,97,97,29.91,29.74,0,0,0,0.00
2013-1-26,50.5,43.5,39.6,48.0,41.7,37.0,97,92,69,29.88,29.74,3,0,6,0.00
2013-1-27,46.9,42.7,39.2,46.0,41.8,37.0,97,95,90,29.94,29.85,3,0,5,0.00
2013-1-28,46.4,44.4,41.0,45.0,43.2,39.0,97,96,93,30.03,29.88,0,0,5,0.00
2013-1-29,50.5,47.5,45.3,48.0,44.6,41.0,95,90,85,30.27,30.03,3,0,7,0.00
2013-1-30,53.8,48.6,45.1,48.0,44.6,41.0,92,85,72,30.27,30.21,4,0,9,0.00
2013-1-31,57.0,50.5,45.9,54.0,45.2,41.0,94,82,57,30.24,30.09,0,0,3,0.00
2013-2-1,55.0,45.8,38.8,50.0,40.8,36.0,92,82,66,30.12,30.00,0,0,3,0.00
2013-2-2,47.5,41.4,36.7,46.0,39.0,34.0,95,91,85,30.09,30.03,0,0,0,0.00
2013-2-3,51.4,46.3,40.3,50.0,43.3,39.0,96,89,79,30.09,30.00,0,0,3,0.00
2013-2-4,56.8,47.6,41.2,50.0,41.8,37.0,93,81,57,30.53,29.71,0,0,0,0.00
2013-2-5,55.9,48.4,44.2,48.0,42.6,39.0,96,80,54,29.85,29.71,5,0,11,0.00
2013-2-6,54.5,48.1,43.5,45.0,40.4,36.0,91,75,49,29.88,29.62,4,0,14,0.00
2013-2-7,49.8,42.0,35.2,43.0,35.5,32.0,92,78,49,29.88,29.71,3,0,7,0.00
2013-2-8,48.4,41.0,35.1,43.0,34.7,32.0,93,78,56,30.06,29.88,0,0,3,0.00
2013-2-9,47.8,43.0,38.8,43.0,36.9,32.0,91,78,59,30.06,30.03,0,0,0,0.00
2013-2-10,50.2,45.6,43.3,48.0,41.7,36.0,96,87,70,30.86,30.06,0,0,3,0.00
2013-2-11,50.2,45.9,41.9,41.0,36.5,32.0,81,71,51,30.18,30.09,0,0,3,0.00
2013-2-12,57.6,50.6,46.6,46.0,42.7,39.0,88,74,56,30.27,30.18,0,0,3,0.00
2013-2-13,54.9,50.3,47.1,45.0,42.6,37.0,85,74,63,30.27,30.21,0,0,3,0.00
2013-2-14,59.9,47.6,37.2,48.0,36.9,27.0,90,69,45,31.01,30.24,0,0,0,0.00
2013-2-15,55.0,46.8,41.7,43.0,40.8,37.0,94,80,56,30.24,30.00,0,0,0,0.00
2013-2-16,54.9,45.6,37.0,46.0,38.9,32.0,95,79,48,30.06,30.00,3,0,10,0.00
2013-2-17,56.7,42.8,35.6,43.0,33.8,32.0,88,68,43,30.06,29.85,0,0,0,0.00
2013-2-18,50.5,41.5,34.9,39.0,33.2,32.0,88,71,46,29.85,29.50,0,0,8,0.00
2013-2-19,56.1,43.5,37.9,54.0,39.2,32.0,95,86,48,29.77,29.44,0,0,3,0.00
2013-2-20,55.2,43.1,38.3,41.0,36.8,32.0,97,81,45,29.88,29.77,0,0,4,0.00
2013-2-21,47.1,42.5,36.9,45.0,38.9,36.0,97,87,66,30.00,29.88,0,0,7,0.00
2013-2-22,46.4,44.0,38.8,46.0,41.1,36.0,97,89,67,30.59,29.71,7,1,14,0.44
2013-2-23,50.9,41.2,33.8,48.0,36.7,32.0,97,82,59,30.30,29.88,0,0,4,0.00
2013-2-24,60.4,43.6,34.9,41.0,33.4,32.0,94,67,35,30.21,29.85,0,0,5,0.00
2013-2-25,58.5,44.2,37.4,46.0,37.2,32.0,96,77,41,30.18,29.83,7,0,13,0.24
2013-2-26,55.9,41.9,31.8,41.0,33.1,32.0,94,71,41,30.95,30.03,0,0,3,0.00
2013-2-27,52.2,46.2,39.2,46.0,38.8,32.0,93,76,57,30.83,30.00,0,0,4,0.00
2013-2-28,58.5,53.1,47.8,52.0,48.6,46.0,96,85,69,30.21,29.97,3,0,9,0.00
2013-3-1,65.3,56.1,50.4,52.0,46.9,43.0,89,72,48,30.86,30.09,0,0,4,0.00
2013-3-2,56.5,51.4,43.0,50.0,45.0,34.0,85,78,64,30.83,29.94,0,0,3,0.00
2013-3-3,70.3,44.2,33.6,50.0,32.9,32.0,89,59,28,30.09,29.97,0,0,3,0.00
2013-3-4,66.4,44.4,32.7,45.0,32.7,32.0,86,62,31,30.50,29.68,0,0,0,0.00
2013-3-5,50.4,43.4,37.4,48.0,39.4,32.0,95,85,65,29.68,29.38,0,0,3,0.00
2013-3-6,49.5,44.0,41.2,46.0,41.8,36.0,97,91,78,29.74,29.32,0,0,5,0.12
2013-3-7,76.3,46.1,32.2,52.0,34.1,32.0,93,64,28,29.83,29.74,0,0,0,0.00
2013-3-8,74.3,46.2,33.3,48.0,33.5,32.0,86,62,29,29.97,29.80,0,0,3,0.00
2013-3-9,71.1,46.4,31.3,41.0,33.0,32.0,89,59,28,30.27,29.97,0,0,3,0.00
2013-3-10,56.5,46.4,34.9,43.0,35.7,32.0,83,65,46,30.30,30.18,0,0,0,0.00
2013-3-11,63.1,52.9,46.9,50.0,43.6,41.0,86,71,49,30.18,30.00,0,0,0,0.00
2013-3-12,62.4,52.8,43.5,52.0,43.5,39.0,92,72,50,30.03,29.91,0,0,0,0.00
2013-3-13,73.8,56.5,47.1,50.0,43.0,39.0,82,61,33,30.00,29.85,0,0,0,0.00
2013-3-14,61.0,53.7,46.9,46.0,41.8,34.0,85,65,38,30.00,29.83,3,0,8,0.00
2013-3-15,71.1,57.6,48.0,54.0,43.8,37.0,81,62,38,30.00,29.94,0,0,3,0.00
2013-3-16,51.4,47.8,40.3,46.0,41.7,36.0,88,79,61,29.97,29.80,0,0,6,0.00
2013-3-17,68.0,44.9,36.7,39.0,33.1,32.0,88,62,31,30.09,29.97,0,0,9,0.00
2013-3-18,73.6,46.0,32.2,41.0,32.8,32.0,85,54,25,30.06,29.88,0,0,3,0.00
2013-3-19,51.8,44.2,39.0,46.0,37.5,32.0,96,76,56,29.88,29.44,0,0,0,0.24
2013-3-20,65.8,49.4,38.5,54.0,42.9,32.0,97,79,35,29.97,29.35,7,1,17,0.68
2013-3-21,58.3,43.0,36.9,43.0,33.9,32.0,92,71,39,30.09,29.97,5,0,10,0.00
2013-3-22,64.8,41.4,32.9,41.0,33.1,32.0,91,71,33,30.15,30.09,0,0,4,0.00
2013-3-23,56.3,42.2,32.5,43.0,32.6,32.0,87,61,37,30.15,30.03,0,0,0,0.00
2013-3-24,58.6,46.6,36.9,36.0,32.3,32.0,72,54,37,30.03,29.83,0,0,0,0.00
2013-3-25,64.8,49.9,39.4,37.0,33.1,32.0,71,53,34,29.85,29.68,0,0,0,0.00
2013-3-26,58.3,50.1,44.6,52.0,40.7,34.0,92,71,50,29.80,29.74,0,0,0,0.00
2013-3-27,68.9,52.6,42.1,54.0,42.9,37.0,92,72,38,29.77,29.68,4,0,10,0.00
2013-3-28,70.3,56.2,47.8,63.0,46.9,39.0,93,74,37,29.91,29.77,3,0,4,0.00
2013-3-29,76.5,58.2,48.7,59.0,47.1,43.0,94,70,35,29.97,29.88,0,0,3,0.00
2013-3-30,85.6,61.8,46.2,57.0,44.0,41.0,91,56,25,29.91,29.71,0,0,3,0.00
2013-3-31,88.9,62.7,48.0,57.0,44.9,39.0,85,55,24,29.80,29.68,4,0,9,0.00
2013-4-1,65.5,57.7,50.5,48.0,46.1,43.0,76,66,49,29.94,29.80,0,0,4,0.00
2013-4-2,75.6,58.2,49.5,55.0,44.0,39.0,83,61,32,29.97,29.88,3,0,4,0.00
2013-4-3,66.2,55.8,43.7,55.0,44.0,39.0,91,66,46,29.91,29.68,0,0,3,0.00
2013-4-4,61.2,56.3,52.5,59.0,50.2,43.0,94,81,61,29.68,29.47,4,0,9,0.00
2013-4-5,61.5,54.4,52.0,52.0,47.6,41.0,97,79,52,30.21,29.62,3,0,8,0.00
2013-4-6,63.7,52.0,48.6,54.0,47.3,37.0,97,85,44,30.47,29.50,4,0,8,0.32
2013-4-7,56.3,49.2,42.4,52.0,41.0,34.0,97,74,49,30.50,29.41,6,1,12,0.00
2013-4-8,70.3,49.5,39.9,54.0,38.4,34.0,95,68,32,30.83,29.77,0,0,4,0.00
2013-4-9,61.5,50.4,40.3,46.0,38.6,34.0,86,65,42,30.89,30.00,0,0,0,0.00
2013-4-10,64.6,52.9,42.6,54.0,42.1,32.0,85,67,43,30.89,29.94,4,0,10,0.00
2013-4-11,65.7,50.1,38.8,46.0,35.5,32.0,84,60,35,30.89,29.91,0,0,0,0.00
2013-4-12,58.8,49.3,37.2,48.0,36.6,32.0,84,63,45,30.53,29.65,0,0,4,0.00
2013-4-13,57.2,47.2,40.1,48.0,34.8,32.0,82,62,37,30.68,29.71,4,0,10,0.00
2013-4-14,54.3,44.5,39.2,46.0,38.7,32.0,95,81,49,30.68,29.71,0,0,3,0.24
2013-4-15,63.1,48.1,39.2,57.0,39.1,32.0,97,74,38,29.94,29.74,0,0,4,0.00
2013-4-16,76.5,52.3,37.6,54.0,35.2,32.0,87,55,26,30.15,29.94,0,0,5,0.00
2013-4-17,74.3,50.9,36.9,45.0,35.5,32.0,84,58,28,30.27,30.15,0,0,6,0.00
2013-4-18,72.9,55.8,42.8,54.0,38.4,36.0,82,54,31,30.24,30.09,0,0,4,0.00
2013-4-19,64.8,53.5,48.2,55.0,45.9,41.0,97,78,49,30.83,29.97,7,1,11,0.00
2013-4-20,66.9,54.7,46.0,46.0,40.9,36.0,85,62,37,30.89,30.03,0,0,4,0.00
2013-4-21,62.2,53.0,45.7,43.0,39.7,37.0,78,62,45,30.09,30.00,0,0,5,0.00
2013-4-22,83.7,56.8,42.3,45.0,35.5,32.0,79,47,21,30.15,30.06,0,0,4,0.00
2013-4-23,87.1,58.8,40.6,43.0,33.0,32.0,60,36,18,30.12,29.88,0,0,6,0.00
2013-4-24,91.4,62.3,43.0,43.0,33.4,32.0,55,33,17,29.97,29.74,0,0,4,0.00
2013-4-25,90.1,63.2,44.6,46.0,36.5,32.0,66,38,18,29.88,29.77,3,0,7,0.00
2013-4-26,91.9,65.0,45.9,55.0,39.5,34.0,77,42,20,30.00,29.88,0,0,4,0.00
2013-4-27,90.9,62.8,45.9,48.0,37.2,32.0,74,43,18,30.77,29.97,5,0,9,0.00
2013-4-28,81.7,60.3,52.0,46.0,40.4,34.0,72,50,26,30.80,29.88,4,0,6,0.00
2013-4-29,76.1,56.3,41.0,48.0,37.7,32.0,84,50,24,30.71,29.88,4,0,10,0.00
2013-4-30,73.6,50.1,35.6,45.0,32.5,32.0,79,48,25,30.18,30.00,0,0,4,0.00
2013-5-1,81.7,56.3,37.8,43.0,33.0,32.0,71,41,21,30.27,30.15,0,0,4,0.00
2013-5-2,56.3,50.0,45.0,32.0,32.0,32.0,54,42,35,30.18,30.15,0,0,0,0.00
2013-11-19,55.0,49.1,41.2,54.0,46.7,34.0,93,90,75,29.77,29.59,0,0,0,0.00
2013-11-20,48.0,38.9,33.8,36.0,32.1,32.0,82,65,47,30.09,29.77,0,0,3,0.00
2013-11-21,48.4,36.7,29.5,32.0,32.0,32.0,56,44,33,30.30,30.09,0,0,0,0.00
2013-11-22,49.6,35.3,24.4,32.0,32.0,32.0,76,51,36,30.30,30.12,0,0,0,0.00
2013-11-23,52.7,37.4,27.1,32.0,32.0,32.0,73,51,36,30.12,29.91,0,0,0,0.00
2013-11-24,49.5,34.9,26.1,32.0,32.0,32.0,76,60,38,30.03,29.91,0,0,0,0.00
2013-11-25,48.9,35.1,26.8,36.0,32.2,32.0,85,71,47,30.12,30.03,0,0,0,2.08
2013-11-26,45.7,37.0,29.3,37.0,33.3,32.0,87,78,68,30.03,29.83,0,0,0,0.00
2013-11-27,47.7,38.0,32.5,39.0,32.5,32.0,88,74,53,29.83,29.71,0,0,0,0.24
2013-11-28,48.9,36.5,29.1,36.0,32.4,32.0,88,74,49,29.97,29.77,0,0,0,0.00
2013-11-29,45.9,37.4,29.1,39.0,34.1,32.0,88,80,70,30.12,29.97,0,0,0,0.00
2013-11-30,52.7,45.0,38.3,48.0,41.1,36.0,94,86,75,30.15,30.00,0,0,3,0.00
2013-12-1,56.3,53.4,49.6,55.0,50.1,41.0,95,88,72,30.03,29.74,125,2,125,0.79
2013-12-2,53.1,45.1,35.1,52.0,42.7,32.0,97,90,75,29.83,29.71,125,4,125,0.00
2013-12-3,44.2,35.4,28.2,41.0,33.6,32.0,94,78,51,30.00,29.83,125,4,125,0.32
2013-12-4,38.3,29.4,23.9,32.0,32.0,32.0,73,56,41,30.09,30.00,125,2,125,0.16
2013-12-5,33.1,25.6,18.0,32.0,32.0,32.0,71,58,45,30.06,29.91,125,2,125,0.08
2013-12-6,30.4,26.6,25.0,32.0,32.0,32.0,80,73,64,29.91,29.68,125,1,125,0.24
2013-12-7,29.7,21.6,10.2,32.0,32.0,32.0,61,49,42,30.18,30.00,0,0,0,0.93
2013-12-8,24.3,14.1,4.1,32.0,32.0,32.0,70,57,48,30.36,30.18,0,0,0,0.00
2013-12-9,28.9,19.5,9.1,32.0,32.0,32.0,75,64,55,30.39,30.30,0,0,0,0.00
2013-12-10,34.0,26.0,20.7,32.0,32.0,32.0,78,70,58,30.30,30.18,0,0,0,0.00
2013-12-11,32.2,23.1,18.0,32.0,32.0,32.0,82,78,69,30.18,29.97,0,0,0,0.00
2013-12-12,38.1,28.2,19.0,36.0,32.5,32.0,93,85,80,30.00,29.88,0,0,0,0.00
2013-12-13,49.8,42.2,38.3,48.0,40.6,36.0,97,95,93,30.21,29.97,0,0,0,0.00
2013-12-14,43.9,40.8,38.1,45.0,40.9,37.0,97,97,97,30.24,30.15,0,0,3,0.00
2013-12-15,50.4,44.2,39.0,50.0,43.5,39.0,97,96,93,30.24,30.18,0,0,0,0.00
2013-12-16,47.8,44.5,41.5,46.0,42.6,39.0,96,93,89,30.24,30.00,0,0,0,0.00
2013-12-17,42.1,40.0,37.9,41.0,37.9,36.0,96,95,93,30.00,29.94,0,0,0,0.00
2013-12-18,43.5,40.0,35.6,41.0,38.3,34.0,97,96,95,29.97,29.83,0,0,0,0.00
2013-12-19,40.5,35.3,32.0,41.0,34.6,32.0,97,96,93,30.09,29.88,0,0,0,0.00
2013-12-20,47.3,39.3,34.3,46.0,36.9,32.0,95,90,73,30.00,29.71,3,0,7,0.00
2013-12-21,57.9,49.4,46.4,52.0,44.6,39.0,95,84,58,30.03,29.74,0,0,4,0.00
2013-12-22,59.4,50.2,44.1,52.0,45.9,41.0,94,84,66,30.12,30.00,0,0,0,0.00
2013-12-23,54.7,47.7,36.7,54.0,45.7,36.0,95,92,87,30.30,30.09,0,0,3,0.00
2013-12-24,46.0,38.2,34.3,45.0,37.0,32.0,97,96,94,30.36,30.24,0,0,0,0.00
2013-12-25,39.6,38.0,36.5,39.0,36.5,36.0,97,96,95,30.24,30.15,0,0,0,0.00
2013-12-26,38.1,36.4,34.5,36.0,35.0,32.0,96,96,95,30.18,30.00,0,0,0,0.00
2013-12-27,39.7,36.3,33.4,39.0,35.1,32.0,97,96,95,30.15,29.97,0,0,0,0.00
2013-12-28,44.6,40.3,35.8,43.0,37.9,34.0,97,93,81,30.27,30.15,0,0,0,0.00
2013-12-29,44.4,40.9,38.8,39.0,35.9,32.0,87,82,73,30.24,30.06,0,0,0,0.00
2013-12-30,44.8,40.2,37.0,41.0,37.0,34.0,93,87,80,30.06,29.97,0,0,0,0.00
2013-12-31,52.2,41.9,36.5,48.0,38.6,34.0,94,87,76,30.09,30.00,0,0,0,0.00
2014-1-1,43.5,40.7,35.8,41.0,38.6,32.0,94,92,87,30.12,30.03,0,0,0,0.00
2014-1-2,47.1,42.6,38.5,45.0,40.3,37.0,96,93,88,30.03,29.85,0,0,0,0.00